createdAt,value
2019-04-06T00:00:48.983Z,9.9
2019-04-06T00:01:50.595Z,9.9
2019-04-06T00:02:52.116Z,9.8
2019-04-06T00:03:53.593Z,9.9
2019-04-06T00:04:55.117Z,9.8
2019-04-06T00:05:56.689Z,9.9
2019-04-06T00:06:58.310Z,9.9
2019-04-06T00:07:59.925Z,9.8
2019-04-06T00:09:01.503Z,9.9
2019-04-06T00:10:03.118Z,9.9
2019-04-06T00:11:04.700Z,9.8
2019-04-06T00:12:06.139Z,9.8
2019-04-06T00:13:07.607Z,9.8
2019-04-06T00:14:09.123Z,9.9
2019-04-06T00:15:10.678Z,9.8
2019-04-06T00:16:12.178Z,9.8
2019-04-06T00:17:13.750Z,9.8
2019-04-06T00:18:15.288Z,9.8
2019-04-06T00:19:16.786Z,9.8
2019-04-06T00:20:18.315Z,9.8
2019-04-06T00:21:19.858Z,9.8
2019-04-06T00:22:21.308Z,9.8
2019-04-06T00:23:22.936Z,9.8
2019-04-06T00:24:24.517Z,9.8
2019-04-06T00:25:26.115Z,9.7
2019-04-06T00:26:27.662Z,9.8
2019-04-06T00:27:29.241Z,9.8
2019-04-06T00:28:30.743Z,9.9
2019-04-06T00:29:32.459Z,9.8
2019-04-06T00:30:34.084Z,9.7
2019-04-06T00:31:35.710Z,9.8
2019-04-06T00:32:37.209Z,9.7
2019-04-06T00:33:38.773Z,9.7
2019-04-06T00:34:40.337Z,9.7
2019-04-06T00:35:41.876Z,9.7
2019-04-06T00:36:43.381Z,9.7
2019-04-06T00:37:44.884Z,9.7
2019-04-06T00:38:46.384Z,9.8
2019-04-06T00:39:47.950Z,9.8
2019-04-06T00:40:49.453Z,9.7
2019-04-06T00:41:50.956Z,9.8
2019-04-06T00:42:52.453Z,9.8
2019-04-06T00:43:54.120Z,9.8
2019-04-06T00:44:55.595Z,9.8
2019-04-06T00:45:57.230Z,9.8
2019-04-06T00:46:58.849Z,9.7
2019-04-06T00:48:00.319Z,9.7
2019-04-06T00:49:01.806Z,9.8
2019-04-06T00:50:03.467Z,9.8
2019-04-06T00:51:05.161Z,9.8
2019-04-06T00:52:06.732Z,9.8
2019-04-06T00:53:08.240Z,9.8
2019-04-06T00:54:09.749Z,9.8
2019-04-06T00:55:11.291Z,9.8
2019-04-06T00:56:12.884Z,9.7
2019-04-06T00:57:14.513Z,9.7
2019-04-06T00:58:16.081Z,9.8
2019-04-06T00:59:17.686Z,9.8
2019-04-06T01:00:19.314Z,9.8
2019-04-06T01:01:20.813Z,9.7
2019-04-06T01:02:22.486Z,9.8
2019-04-06T01:03:24.124Z,9.9
2019-04-06T01:04:25.742Z,9.8
2019-04-06T01:05:27.323Z,9.8
2019-04-06T01:06:28.770Z,9.8
2019-04-06T01:07:30.310Z,9.7
2019-04-06T01:08:31.850Z,9.8
2019-04-06T01:09:33.376Z,9.8
2019-04-06T01:10:34.936Z,9.7
2019-04-06T01:11:36.650Z,9.8
2019-04-06T01:12:38.343Z,9.8
2019-04-06T01:13:39.880Z,9.7
2019-04-06T01:14:41.498Z,9.8
2019-04-06T01:15:43.077Z,9.7
2019-04-06T01:16:44.671Z,9.8
2019-04-06T01:17:46.274Z,9.8
2019-04-06T01:18:47.843Z,9.8
2019-04-06T01:19:49.482Z,9.8
2019-04-06T01:20:51.076Z,9.8
2019-04-06T01:21:52.638Z,9.8
2019-04-06T01:22:54.192Z,9.8
2019-04-06T01:23:55.789Z,9.7
2019-04-06T01:24:57.314Z,9.8
2019-04-06T01:26:07.087Z,9.8
2019-04-06T01:27:00.418Z,9.8
2019-04-06T01:28:02.016Z,9.8
2019-04-06T01:29:03.658Z,9.7
2019-04-06T01:30:05.268Z,9.7
2019-04-06T01:31:06.799Z,9.7
2019-04-06T01:32:08.401Z,9.7
2019-04-06T01:33:09.963Z,9.7
2019-04-06T01:34:11.513Z,9.7
2019-04-06T01:35:13.108Z,9.7
2019-04-06T01:36:14.719Z,9.7
2019-04-06T01:37:16.244Z,9.7
2019-04-06T01:38:17.818Z,9.7
2019-04-06T01:39:19.371Z,9.7
2019-04-06T01:40:21.009Z,9.7
2019-04-06T01:41:22.657Z,9.7
2019-04-06T01:42:24.222Z,9.7
2019-04-06T01:43:25.805Z,9.7
2019-04-06T01:44:27.331Z,9.7
2019-04-06T01:45:28.886Z,9.7
2019-04-06T01:46:30.437Z,9.7
2019-04-06T01:47:32.007Z,9.7
2019-04-06T01:48:33.572Z,9.7
2019-04-06T01:49:35.212Z,9.7
2019-04-06T01:50:36.813Z,9.7
2019-04-06T01:51:38.655Z,9.6
2019-04-06T01:52:40.263Z,9.7
2019-04-06T01:53:41.952Z,9.7
2019-04-06T01:54:43.523Z,9.8
2019-04-06T01:55:45.134Z,9.7
2019-04-06T01:56:46.689Z,9.7
2019-04-06T01:57:48.231Z,9.7
2019-04-06T01:58:49.820Z,9.7
2019-04-06T01:59:51.389Z,9.7
2019-04-06T02:00:52.969Z,9.7
2019-04-06T02:01:54.559Z,9.7
2019-04-06T02:02:56.161Z,9.7
2019-04-06T02:03:57.711Z,9.7
2019-04-06T02:04:59.304Z,9.7
2019-04-06T02:06:00.993Z,9.7
2019-04-06T02:07:02.569Z,9.7
2019-04-06T02:08:04.134Z,9.6
2019-04-06T02:09:05.741Z,9.7
2019-04-06T02:10:07.241Z,9.7
2019-04-06T02:11:08.770Z,9.7
2019-04-06T02:12:10.353Z,9.7
2019-04-06T02:13:11.848Z,9.7
2019-04-06T02:14:13.491Z,9.7
2019-04-06T02:15:15.029Z,9.7
2019-04-06T02:16:16.615Z,9.7
2019-04-06T02:17:18.244Z,9.7
2019-04-06T02:18:19.750Z,9.7
2019-04-06T02:19:21.400Z,9.7
2019-04-06T02:20:22.990Z,9.7
2019-04-06T02:21:24.562Z,9.7
2019-04-06T02:22:26.144Z,9.7
2019-04-06T02:23:27.692Z,9.7
2019-04-06T02:24:29.891Z,9.7
2019-04-06T02:25:31.474Z,9.6
2019-04-06T02:26:33.040Z,9.6
2019-04-06T02:27:34.652Z,9.6
2019-04-06T02:28:36.289Z,9.7
2019-04-06T02:29:37.960Z,9.7
2019-04-06T02:30:39.887Z,9.7
2019-04-06T02:31:41.302Z,9.6
2019-04-06T02:32:42.835Z,9.7
2019-04-06T02:33:44.408Z,9.7
2019-04-06T02:34:46.151Z,9.7
2019-04-06T02:35:47.751Z,9.7
2019-04-06T02:36:49.269Z,9.7
2019-04-06T02:37:50.829Z,9.7
2019-04-06T02:38:52.218Z,9.6
2019-04-06T02:39:53.683Z,9.7
2019-04-06T02:40:55.368Z,9.7
2019-04-06T02:41:56.822Z,9.7
2019-04-06T02:42:58.355Z,9.6
2019-04-06T02:43:59.892Z,9.7
2019-04-06T02:45:01.450Z,9.7
2019-04-06T02:46:02.981Z,9.7
2019-04-06T02:47:04.539Z,9.7
2019-04-06T02:48:06.196Z,9.7
2019-04-06T02:49:08.051Z,9.7
2019-04-06T02:50:09.468Z,9.7
2019-04-06T02:51:10.974Z,9.7
2019-04-06T02:52:12.599Z,9.7
2019-04-06T02:53:14.155Z,9.7
2019-04-06T02:54:15.701Z,9.7
2019-04-06T02:55:17.351Z,9.7
2019-04-06T02:56:18.920Z,9.7
2019-04-06T02:57:20.494Z,9.7
2019-04-06T02:58:23.532Z,9.7
2019-04-06T02:59:23.778Z,9.6
2019-04-06T03:00:25.341Z,9.6
2019-04-06T03:01:26.947Z,9.7
2019-04-06T03:02:28.538Z,9.7
2019-04-06T03:03:30.064Z,9.6
2019-04-06T03:04:31.786Z,9.5
2019-04-06T03:05:33.596Z,9.6
2019-04-06T03:06:35.120Z,9.5
2019-04-06T03:07:36.627Z,9.6
2019-04-06T03:08:38.221Z,9.6
2019-04-06T03:09:39.742Z,9.5
2019-04-06T03:10:41.388Z,9.5
2019-04-06T03:11:43.081Z,9.6
2019-04-06T03:12:44.474Z,9.6
2019-04-06T03:13:46.133Z,9.6
2019-04-06T03:14:47.679Z,9.5
2019-04-06T03:15:49.227Z,9.5
2019-04-06T03:16:50.798Z,9.6
2019-04-06T03:17:52.383Z,9.5
2019-04-06T03:18:53.995Z,9.6
2019-04-06T03:19:55.597Z,9.5
2019-04-06T03:20:57.136Z,9.6
2019-04-06T03:21:58.585Z,9.5
2019-04-06T03:23:00.174Z,9.6
2019-04-06T03:24:01.755Z,9.5
2019-04-06T03:25:04.161Z,9.6
2019-04-06T03:26:05.667Z,9.6
2019-04-06T03:27:07.202Z,9.5
2019-04-06T03:28:08.719Z,9.5
2019-04-06T03:29:10.306Z,9.6
2019-04-06T03:30:11.896Z,9.6
2019-04-06T03:31:13.482Z,9.5
2019-04-06T03:32:15.013Z,9.6
2019-04-06T03:33:16.488Z,9.6
2019-04-06T03:34:21.477Z,9.6
2019-04-06T03:35:19.719Z,9.6
2019-04-06T03:36:21.270Z,9.6
2019-04-06T03:37:22.886Z,9.6
2019-04-06T03:38:24.631Z,9.6
2019-04-06T03:39:26.187Z,9.5
2019-04-06T03:40:27.776Z,9.5
2019-04-06T03:41:29.428Z,9.6
2019-04-06T03:42:31.973Z,9.6
2019-04-06T03:43:33.513Z,9.6
2019-04-06T03:44:35.105Z,9.6
2019-04-06T03:45:36.531Z,9.6
2019-04-06T03:46:38.248Z,9.5
2019-04-06T03:47:39.830Z,9.5
2019-04-06T03:48:41.558Z,9.5
2019-04-06T03:49:43.155Z,9.6
2019-04-06T03:50:44.687Z,9.5
2019-04-06T03:51:46.342Z,9.6
2019-04-06T03:52:47.816Z,9.6
2019-04-06T03:53:49.271Z,9.5
2019-04-06T03:54:50.787Z,9.5
2019-04-06T03:55:52.280Z,9.5
2019-04-06T03:56:53.878Z,9.5
2019-04-06T03:57:55.498Z,9.5
2019-04-06T03:58:57.164Z,9.4
2019-04-06T03:59:58.688Z,9.5
2019-04-06T04:01:00.361Z,9.5
2019-04-06T04:02:01.960Z,9.5
2019-04-06T04:03:03.430Z,9.4
2019-04-06T04:04:05.015Z,9.4
2019-04-06T04:05:06.571Z,9.5
2019-04-06T04:06:08.291Z,9.4
2019-04-06T04:07:09.872Z,9.4
2019-04-06T04:08:12.276Z,9.4
2019-04-06T04:09:14.010Z,9.5
2019-04-06T04:10:15.348Z,9.5
2019-04-06T04:11:16.962Z,9.4
2019-04-06T04:12:18.593Z,9.4
2019-04-06T04:13:20.178Z,9.4
2019-04-06T04:14:21.923Z,9.5
2019-04-06T04:15:23.529Z,9.5
2019-04-06T04:16:25.150Z,9.5
2019-04-06T04:17:26.435Z,9.5
2019-04-06T04:18:28.030Z,9.5
2019-04-06T04:19:29.881Z,9.4
2019-04-06T04:20:31.317Z,9.5
2019-04-06T04:21:33.218Z,9.5
2019-04-06T04:22:35.403Z,9.4
2019-04-06T04:23:37.018Z,9.4
2019-04-06T04:24:38.628Z,9.4
2019-04-06T04:25:40.463Z,9.4
2019-04-06T04:26:42.246Z,9.4
2019-04-06T04:27:43.842Z,9.4
2019-04-06T04:28:45.431Z,9.4
2019-04-06T04:29:46.965Z,9.4
2019-04-06T04:30:48.661Z,9.4
2019-04-06T04:31:50.201Z,9.4
2019-04-06T04:32:51.680Z,9.4
2019-04-06T04:33:53.279Z,9.4
2019-04-06T04:34:54.931Z,9.5
2019-04-06T04:35:56.503Z,9.4
2019-04-06T04:36:58.070Z,9.5
2019-04-06T04:37:59.680Z,9.4
2019-04-06T04:39:01.277Z,9.4
2019-04-06T04:40:02.972Z,9.4
2019-04-06T04:41:04.546Z,9.4
2019-04-06T04:42:06.190Z,9.4
2019-04-06T04:43:07.926Z,9.5
2019-04-06T04:44:09.564Z,9.5
2019-04-06T04:45:10.892Z,9.4
2019-04-06T04:46:12.422Z,9.5
2019-04-06T04:47:14.051Z,9.5
2019-04-06T04:48:15.748Z,9.5
2019-04-06T04:49:17.122Z,9.4
2019-04-06T04:50:18.652Z,9.4
2019-04-06T04:51:20.155Z,9.5
2019-04-06T04:52:21.809Z,9.4
2019-04-06T04:53:23.320Z,9.5
2019-04-06T04:54:24.819Z,9.5
2019-04-06T04:55:26.407Z,9.4
2019-04-06T04:56:27.955Z,9.5
2019-04-06T04:57:39.572Z,9.5
2019-04-06T04:58:31.289Z,9.4
2019-04-06T04:59:32.812Z,9.4
2019-04-06T05:00:35.089Z,9.5
2019-04-06T05:01:36.678Z,9.5
2019-04-06T05:02:38.220Z,9.4
2019-04-06T05:03:40.033Z,9.5
2019-04-06T05:04:41.510Z,9.5
2019-04-06T05:05:43.197Z,9.4
2019-04-06T05:06:44.778Z,9.4
2019-04-06T05:07:46.434Z,9.4
2019-04-06T05:08:48.063Z,9.4
2019-04-06T05:09:49.573Z,9.4
2019-04-06T05:10:51.105Z,9.4
2019-04-06T05:11:52.778Z,9.5
2019-04-06T05:12:54.491Z,9.5
2019-04-06T05:13:55.801Z,9.5
2019-04-06T05:14:57.470Z,9.5
2019-04-06T05:15:59.108Z,9.4
2019-04-06T05:17:00.655Z,9.5
2019-04-06T05:18:02.479Z,9.4
2019-04-06T05:19:04.041Z,9.4
2019-04-06T05:20:05.615Z,9.4
2019-04-06T05:21:07.218Z,9.5
2019-04-06T05:22:08.896Z,9.5
2019-04-06T05:23:10.555Z,9.4
2019-04-06T05:24:12.236Z,9.4
2019-04-06T05:25:13.948Z,9.5
2019-04-06T05:26:15.524Z,9.4
2019-04-06T05:27:17.153Z,9.5
2019-04-06T05:28:18.588Z,9.4
2019-04-06T05:29:20.241Z,9.5
2019-04-06T05:30:21.900Z,9.4
2019-04-06T05:31:23.477Z,9.6
2019-04-06T05:32:25.202Z,9.5
2019-04-06T05:33:26.900Z,9.6
2019-04-06T05:34:28.458Z,9.5
2019-04-06T05:35:30.200Z,9.5
2019-04-06T05:36:31.699Z,9.4
2019-04-06T05:37:33.729Z,9.6
2019-04-06T05:38:35.387Z,9.6
2019-04-06T05:39:37.175Z,9.5
2019-04-06T05:40:38.954Z,9.6
2019-04-06T05:41:40.854Z,9.6
2019-04-06T05:42:42.514Z,9.6
2019-04-06T05:43:44.294Z,9.6
2019-04-06T05:44:45.977Z,9.5
2019-04-06T05:45:47.770Z,9.6
2019-04-06T05:46:49.636Z,9.6
2019-04-06T05:47:51.298Z,9.6
2019-04-06T05:48:53.142Z,9.5
2019-04-06T05:49:55.120Z,9.6
2019-04-06T05:50:56.677Z,9.5
2019-04-06T05:51:58.424Z,9.6
2019-04-06T05:53:00.277Z,9.6
2019-04-06T05:54:01.819Z,9.5
2019-04-06T05:55:03.583Z,9.5
2019-04-06T05:56:05.220Z,9.6
2019-04-06T05:57:06.978Z,9.5
2019-04-06T05:58:10.640Z,9.6
2019-04-06T05:59:10.861Z,9.7
2019-04-06T06:00:11.839Z,9.6
2019-04-06T06:01:14.625Z,9.7
2019-04-06T06:02:16.291Z,9.7
2019-04-06T06:03:18.077Z,9.7
2019-04-06T06:04:19.558Z,9.7
2019-04-06T06:05:21.132Z,9.8
2019-04-06T06:06:22.849Z,9.8
2019-04-06T06:07:24.579Z,9.8
2019-04-06T06:08:27.146Z,9.7
2019-04-06T06:09:28.853Z,9.8
2019-04-06T06:10:30.501Z,9.8
2019-04-06T06:11:32.106Z,9.8
2019-04-06T06:12:34.728Z,9.8
2019-04-06T06:13:36.565Z,9.8
2019-04-06T06:14:38.456Z,9.9
2019-04-06T06:15:39.990Z,9.8
2019-04-06T06:16:41.726Z,9.9
2019-04-06T06:17:43.496Z,9.8
2019-04-06T06:18:45.163Z,9.9
2019-04-06T06:19:46.745Z,9.9
2019-04-06T06:20:48.702Z,9.9
2019-04-06T06:21:50.095Z,9.9
2019-04-06T06:22:51.706Z,9.9
2019-04-06T06:23:53.380Z,9.8
2019-04-06T06:24:55.155Z,9.9
2019-04-06T06:25:56.649Z,9.9
2019-04-06T06:26:58.293Z,9.9
2019-04-06T06:27:59.955Z,9.9
2019-04-06T06:29:01.517Z,9.9
2019-04-06T06:30:03.363Z,10.0
2019-04-06T06:31:04.847Z,10.0
2019-04-06T06:32:06.502Z,10.0
2019-04-06T06:33:09.094Z,10.0
2019-04-06T06:34:10.740Z,10.0
2019-04-06T06:35:12.371Z,10.0
2019-04-06T06:36:14.310Z,10.2
2019-04-06T06:37:15.739Z,10.1
2019-04-06T06:38:17.544Z,10.0
2019-04-06T06:39:19.388Z,10.1
2019-04-06T06:40:20.922Z,10.1
2019-04-06T06:41:22.466Z,10.1
2019-04-06T06:42:25.200Z,10.2
2019-04-06T06:43:26.868Z,10.2
2019-04-06T06:44:28.471Z,10.2
2019-04-06T06:45:30.192Z,10.2
2019-04-06T06:46:31.855Z,10.3
2019-04-06T06:47:33.844Z,10.3
2019-04-06T06:48:35.488Z,10.3
2019-04-06T06:49:36.971Z,10.1
2019-04-06T06:50:38.603Z,10.2
2019-04-06T06:51:40.152Z,10.2
2019-04-06T06:52:41.930Z,10.1
2019-04-06T06:53:43.528Z,10.3
2019-04-06T06:54:45.091Z,10.2
2019-04-06T06:55:46.803Z,10.3
2019-04-06T06:56:48.569Z,10.2
2019-04-06T06:57:50.413Z,10.2
2019-04-06T06:58:52.201Z,10.1
2019-04-06T06:59:53.797Z,10.1
2019-04-06T07:00:55.384Z,10.2
2019-04-06T07:01:58.554Z,10.0
2019-04-06T07:03:00.085Z,10.2
2019-04-06T07:04:01.725Z,10.1
2019-04-06T07:05:03.314Z,10.1
2019-04-06T07:06:04.901Z,10.1
2019-04-06T07:07:06.502Z,10.1
2019-04-06T07:08:08.067Z,10.2
2019-04-06T07:09:09.757Z,10.2
2019-04-06T07:10:11.357Z,10.2
2019-04-06T07:11:13.335Z,10.2
2019-04-06T07:12:14.787Z,10.2
2019-04-06T07:13:16.749Z,10.3
2019-04-06T07:14:18.465Z,10.4
2019-04-06T07:15:21.141Z,10.3
2019-04-06T07:16:22.709Z,10.4
2019-04-06T07:17:24.388Z,10.4
2019-04-06T07:18:26.040Z,10.4
2019-04-06T07:19:27.706Z,10.5
2019-04-06T07:20:29.652Z,10.5
2019-04-06T07:21:31.328Z,10.6
2019-04-06T07:22:32.812Z,10.7
2019-04-06T07:23:34.403Z,10.6
2019-04-06T07:24:36.036Z,10.7
2019-04-06T07:25:37.615Z,10.7
2019-04-06T07:26:41.062Z,10.8
2019-04-06T07:27:40.798Z,10.8
2019-04-06T07:28:42.547Z,10.8
2019-04-06T07:29:44.193Z,10.9
2019-04-06T07:30:45.785Z,10.9
2019-04-06T07:31:47.501Z,11.0
2019-04-06T07:32:49.207Z,11.0
2019-04-06T07:33:51.133Z,11.0
2019-04-06T07:34:52.468Z,11.0
2019-04-06T07:35:54.274Z,11.1
2019-04-06T07:36:55.933Z,11.1
2019-04-06T07:37:57.681Z,11.2
2019-04-06T07:38:59.106Z,11.2
2019-04-06T07:40:00.785Z,11.2
2019-04-06T07:41:02.305Z,11.3
2019-04-06T07:42:04.116Z,11.4
2019-04-06T07:43:05.694Z,11.5
2019-04-06T07:44:07.232Z,11.5
2019-04-06T07:45:08.771Z,11.6
2019-04-06T07:46:10.319Z,11.6
2019-04-06T07:47:11.904Z,11.7
2019-04-06T07:48:13.420Z,11.7
2019-04-06T07:49:15.015Z,11.6
2019-04-06T07:50:16.715Z,11.8
2019-04-06T07:51:18.239Z,11.7
2019-04-06T07:52:19.772Z,11.8
2019-04-06T07:53:21.510Z,11.8
2019-04-06T07:54:22.879Z,11.8
2019-04-06T07:55:24.445Z,11.8
2019-04-06T07:56:26.000Z,11.8
2019-04-06T07:57:27.494Z,11.9
2019-04-06T07:58:29.304Z,12.0
2019-04-06T07:59:30.885Z,11.9
2019-04-06T08:00:32.690Z,11.9
2019-04-06T08:01:34.019Z,11.9
2019-04-06T08:02:35.949Z,11.9
2019-04-06T08:03:37.498Z,11.9
2019-04-06T08:04:39.141Z,11.9
2019-04-06T08:05:40.512Z,11.8
2019-04-06T08:06:42.017Z,11.9
2019-04-06T08:07:43.544Z,11.9
2019-04-06T08:08:45.105Z,11.9
2019-04-06T08:09:46.747Z,12.0
2019-04-06T08:10:48.296Z,12.0
2019-04-06T08:11:50.492Z,12.0
2019-04-06T08:12:52.065Z,12.0
2019-04-06T08:13:53.892Z,12.0
2019-04-06T08:14:57.346Z,12.1
2019-04-06T08:15:56.910Z,12.1
2019-04-06T08:16:58.464Z,12.1
2019-04-06T08:18:00.228Z,12.0
2019-04-06T08:19:01.632Z,12.1
2019-04-06T08:20:03.190Z,12.1
2019-04-06T08:21:04.884Z,12.2
2019-04-06T08:22:06.216Z,12.2
2019-04-06T08:23:07.774Z,12.2
2019-04-06T08:24:09.333Z,12.3
2019-04-06T08:25:10.957Z,12.1
2019-04-06T08:26:12.709Z,12.2
2019-04-06T08:27:14.242Z,12.2
2019-04-06T08:28:15.816Z,12.3
2019-04-06T08:29:17.395Z,12.4
2019-04-06T08:30:18.915Z,12.4
2019-04-06T08:31:20.511Z,12.4
2019-04-06T08:32:22.215Z,12.5
2019-04-06T08:33:23.773Z,12.5
2019-04-06T08:34:25.352Z,12.5
2019-04-06T08:35:26.930Z,12.5
2019-04-06T08:36:28.705Z,12.4
2019-04-06T08:37:30.299Z,12.5
2019-04-06T08:38:31.909Z,12.6
2019-04-06T08:39:33.415Z,12.6
2019-04-06T08:40:35.254Z,12.6
2019-04-06T08:41:36.749Z,12.6
2019-04-06T08:42:38.544Z,12.7
2019-04-06T08:43:40.389Z,12.7
2019-04-06T08:44:42.054Z,12.7
2019-04-06T08:45:43.743Z,12.7
2019-04-06T08:46:45.529Z,12.8
2019-04-06T08:47:47.429Z,12.8
2019-04-06T08:48:48.908Z,12.8
2019-04-06T08:49:50.677Z,12.8
2019-04-06T08:50:52.535Z,12.9
2019-04-06T08:51:54.097Z,12.9
2019-04-06T08:52:55.758Z,12.9
2019-04-06T08:53:57.641Z,13.0
2019-04-06T08:54:59.018Z,13.0
2019-04-06T08:56:00.803Z,13.1
2019-04-06T08:57:02.308Z,13.2
2019-04-06T08:58:03.908Z,13.1
2019-04-06T08:59:11.260Z,13.1
2019-04-06T09:00:07.153Z,13.2
2019-04-06T09:01:08.764Z,13.3
2019-04-06T09:02:10.104Z,13.2
2019-04-06T09:03:11.634Z,13.4
2019-04-06T09:04:13.245Z,13.4
2019-04-06T09:05:14.732Z,13.4
2019-04-06T09:06:16.501Z,13.5
2019-04-06T09:07:18.511Z,13.5
2019-04-06T09:08:20.095Z,13.6
2019-04-06T09:09:21.534Z,13.5
2019-04-06T09:10:23.149Z,13.6
2019-04-06T09:11:25.227Z,13.5
2019-04-06T09:12:27.322Z,13.5
2019-04-06T09:13:29.148Z,13.7
2019-04-06T09:14:32.052Z,13.6
2019-04-06T09:15:33.792Z,13.7
2019-04-06T09:16:35.583Z,13.7
2019-04-06T09:17:39.606Z,13.8
2019-04-06T09:18:50.291Z,13.8
2019-04-06T09:19:51.883Z,13.9
2019-04-06T09:20:53.611Z,13.9
2019-04-06T09:21:55.143Z,13.9
2019-04-06T09:22:56.945Z,13.9
2019-04-06T09:23:59.025Z,13.9
2019-04-06T09:24:59.976Z,14.0
2019-04-06T09:26:01.845Z,14.2
2019-04-06T09:27:03.188Z,14.3
2019-04-06T09:28:05.001Z,14.5
2019-04-06T09:29:06.585Z,14.7
2019-04-06T09:30:08.203Z,14.8
2019-04-06T09:31:09.738Z,14.9
2019-04-06T09:32:11.585Z,15.0
2019-04-06T09:33:13.413Z,15.2
2019-04-06T09:34:14.962Z,15.3
2019-04-06T09:35:16.536Z,15.4
2019-04-06T09:36:18.131Z,15.6
2019-04-06T09:37:19.906Z,15.7
2019-04-06T09:38:21.442Z,15.9
2019-04-06T09:39:22.903Z,16.0
2019-04-06T09:40:24.425Z,16.2
2019-04-06T09:41:26.662Z,16.2
2019-04-06T09:42:28.490Z,16.3
2019-04-06T09:43:30.007Z,16.3
2019-04-06T09:44:32.405Z,16.3
2019-04-06T09:45:34.776Z,16.5
2019-04-06T09:46:36.891Z,16.5
2019-04-06T09:47:38.829Z,16.6
2019-04-06T09:48:41.772Z,16.7
2019-04-06T09:49:45.187Z,16.7
2019-04-06T09:50:48.296Z,16.8
2019-04-06T09:51:50.882Z,16.8
2019-04-06T09:52:53.663Z,16.9
2019-04-06T09:54:05.219Z,17.0
2019-04-06T09:54:59.759Z,17.1
2019-04-06T09:56:03.058Z,17.2
2019-04-06T09:57:06.145Z,17.4
2019-04-06T09:58:12.401Z,17.3
2019-04-06T09:59:15.503Z,17.4
2019-04-06T10:00:20.970Z,17.4
2019-04-06T10:01:32.506Z,17.4
2019-04-06T10:02:30.070Z,17.5
2019-04-06T10:03:35.379Z,17.4
2019-04-06T10:04:38.797Z,17.7
2019-04-06T10:05:41.330Z,17.4
2019-04-06T10:06:45.878Z,17.5
2019-04-06T10:07:50.026Z,17.5
2019-04-06T10:08:53.999Z,17.5
2019-04-06T10:09:57.217Z,17.5
2019-04-06T10:11:06.070Z,17.6
2019-04-06T10:12:10.045Z,17.6
2019-04-06T10:13:13.780Z,17.5
2019-04-06T10:14:17.325Z,17.5
2019-04-06T10:15:20.136Z,17.8
2019-04-06T10:16:23.567Z,17.9
2019-04-06T10:17:27.272Z,18.0
2019-04-06T10:18:30.257Z,18.1
2019-04-06T10:19:33.424Z,18.2
2019-04-06T10:20:36.152Z,18.3
2019-04-06T10:21:38.603Z,18.5
2019-04-06T10:22:41.524Z,18.5
2019-04-06T10:23:44.408Z,18.5
2019-04-06T10:24:48.954Z,18.6
2019-04-06T10:25:52.357Z,18.6
2019-04-06T10:26:55.477Z,18.6
2019-04-06T10:27:58.423Z,18.6
2019-04-06T10:29:00.900Z,18.5
2019-04-06T10:30:03.281Z,18.3
2019-04-06T10:31:06.155Z,18.4
2019-04-06T10:32:09.127Z,18.4
2019-04-06T10:33:12.295Z,18.5
2019-04-06T10:34:15.325Z,18.7
2019-04-06T10:35:19.658Z,18.9
2019-04-06T10:36:23.468Z,18.7
2019-04-06T10:37:26.427Z,18.7
2019-04-06T10:38:29.067Z,18.6
2019-04-06T10:39:32.272Z,18.6
2019-04-06T10:40:35.172Z,18.5
2019-04-06T10:41:38.384Z,18.4
2019-04-06T10:42:41.950Z,18.5
2019-04-06T10:43:45.226Z,18.6
2019-04-06T10:44:47.897Z,18.7
2019-04-06T10:45:50.738Z,18.8
2019-04-06T10:46:55.539Z,18.9
2019-04-06T10:47:58.840Z,18.7
2019-04-06T10:49:02.207Z,18.7
2019-04-06T10:50:04.714Z,18.9
2019-04-06T10:51:07.581Z,18.9
2019-04-06T10:52:10.799Z,19.0
2019-04-06T10:53:15.496Z,19.1
2019-04-06T10:54:18.741Z,19.1
2019-04-06T10:55:21.374Z,19.0
2019-04-06T10:56:25.735Z,19.1
2019-04-06T10:57:28.385Z,19.1
2019-04-06T10:58:31.400Z,19.2
2019-04-06T10:59:34.106Z,19.4
2019-04-06T11:00:37.446Z,19.4
2019-04-06T11:01:40.833Z,19.5
2019-04-06T11:02:43.452Z,19.6
2019-04-06T11:03:46.586Z,19.6
2019-04-06T11:04:49.280Z,19.6
2019-04-06T11:05:52.711Z,19.7
2019-04-06T11:06:55.574Z,19.8
2019-04-06T11:07:58.478Z,19.8
2019-04-06T11:08:59.871Z,19.9
2019-04-06T11:10:01.308Z,19.8
2019-04-06T11:11:03.295Z,19.8
2019-04-06T11:12:04.777Z,19.8
2019-04-06T11:13:06.445Z,19.6
2019-04-06T11:14:07.941Z,19.6
2019-04-06T11:15:10.215Z,19.4
2019-04-06T11:16:12.125Z,19.4
2019-04-06T11:17:13.888Z,19.6
2019-04-06T11:18:16.269Z,19.6
2019-04-06T11:19:18.548Z,19.6
2019-04-06T11:20:20.283Z,19.7
2019-04-06T11:21:21.929Z,19.6
2019-04-06T11:22:24.807Z,19.7
2019-04-06T11:23:26.405Z,19.8
2019-04-06T11:24:28.049Z,19.9
2019-04-06T11:25:29.755Z,19.9
2019-04-06T11:26:31.970Z,20.0
2019-04-06T11:27:33.441Z,20.0
2019-04-06T11:28:35.451Z,20.0
2019-04-06T11:29:37.508Z,20.0
2019-04-06T11:30:39.874Z,20.1
2019-04-06T11:31:43.684Z,20.0
2019-04-06T11:32:46.355Z,20.1
2019-04-06T11:33:48.913Z,20.0
2019-04-06T11:34:52.057Z,19.9
2019-04-06T11:35:54.061Z,19.8
2019-04-06T11:36:56.828Z,19.8
2019-04-06T11:37:59.384Z,19.8
2019-04-06T11:39:01.655Z,19.8
2019-04-06T11:40:04.125Z,19.9
2019-04-06T11:41:06.687Z,19.9
2019-04-06T11:42:08.818Z,20.0
2019-04-06T11:43:11.349Z,20.1
2019-04-06T11:44:13.768Z,20.1
2019-04-06T11:45:15.886Z,20.1
2019-04-06T11:46:18.860Z,20.0
2019-04-06T11:47:21.557Z,20.0
2019-04-06T11:48:23.702Z,20.0
2019-04-06T11:49:26.564Z,20.1
2019-04-06T11:50:30.631Z,20.2
2019-04-06T11:51:33.482Z,20.1
2019-04-06T11:52:36.221Z,20.2
2019-04-06T11:53:39.960Z,20.2
2019-04-06T11:54:46.863Z,20.1
2019-04-06T11:55:51.065Z,20.1
2019-04-06T11:56:54.542Z,20.1
2019-04-06T11:57:58.506Z,20.1
2019-04-06T11:59:01.874Z,20.1
2019-04-06T12:00:06.336Z,20.1
2019-04-06T12:01:10.050Z,20.1
2019-04-06T12:02:13.551Z,20.1
2019-04-06T12:03:18.128Z,20.1
2019-04-06T12:04:22.742Z,20.0
2019-04-06T12:05:26.806Z,20.0
2019-04-06T12:06:31.083Z,20.1
2019-04-06T12:07:35.284Z,20.1
2019-04-06T12:08:38.359Z,20.1
2019-04-06T12:09:42.034Z,20.2
2019-04-06T12:10:45.267Z,20.1
2019-04-06T12:11:49.463Z,20.1
2019-04-06T12:12:55.562Z,20.1
2019-04-06T12:13:56.904Z,20.1
2019-04-06T12:15:00.872Z,20.1
2019-04-06T12:16:05.157Z,20.1
2019-04-06T12:17:10.089Z,20.1
2019-04-06T12:18:16.978Z,20.1
2019-04-06T12:19:20.485Z,20.2
2019-04-06T12:20:25.001Z,20.3
2019-04-06T12:21:29.745Z,20.1
2019-04-06T12:22:33.754Z,20.2
2019-04-06T12:23:38.325Z,20.1
2019-04-06T12:24:43.044Z,20.1
2019-04-06T12:25:48.187Z,20.2
2019-04-06T12:26:52.896Z,20.1
2019-04-06T12:27:56.568Z,20.2
2019-04-06T12:29:03.301Z,20.3
2019-04-06T12:30:09.551Z,20.2
2019-04-06T12:31:14.112Z,20.4
2019-04-06T12:32:19.095Z,20.4
2019-04-06T12:33:23.527Z,20.4
2019-04-06T12:34:28.461Z,20.4
2019-04-06T12:35:31.683Z,20.3
2019-04-06T12:36:34.906Z,20.5
2019-04-06T12:37:38.341Z,20.4
2019-04-06T12:38:42.150Z,20.4
2019-04-06T12:39:52.692Z,20.4
2019-04-06T12:40:49.636Z,20.4
2019-04-06T12:41:53.389Z,20.5
2019-04-06T12:42:56.927Z,20.5
2019-04-06T12:44:11.776Z,20.4
2019-04-06T12:45:18.245Z,20.3
2019-04-06T12:46:20.785Z,20.3
2019-04-06T12:47:24.744Z,20.5
2019-04-06T12:48:28.541Z,20.5
2019-04-06T12:49:31.472Z,20.5
2019-04-06T12:50:37.038Z,20.5
2019-04-06T12:51:41.288Z,20.5
2019-04-06T12:52:44.976Z,20.5
2019-04-06T12:53:47.744Z,20.4
2019-04-06T12:54:51.496Z,20.4
2019-04-06T12:55:54.709Z,20.4
2019-04-06T12:56:57.389Z,20.4
2019-04-06T12:58:00.866Z,20.4
2019-04-06T12:59:03.050Z,20.4
2019-04-06T13:00:05.721Z,20.3
2019-04-06T13:01:08.211Z,20.4
2019-04-06T13:02:13.275Z,20.4
2019-04-06T13:03:16.201Z,20.2
2019-04-06T13:04:19.338Z,20.3
2019-04-06T13:05:22.568Z,20.3
2019-04-06T13:06:25.358Z,20.2
2019-04-06T13:07:27.547Z,20.2
2019-04-06T13:08:30.382Z,20.2
2019-04-06T13:09:32.802Z,20.2
2019-04-06T13:10:34.766Z,20.2
2019-04-06T13:11:37.645Z,20.3
2019-04-06T13:12:40.265Z,20.3
2019-04-06T13:13:43.254Z,20.3
2019-04-06T13:14:45.330Z,20.4
2019-04-06T13:15:48.336Z,20.5
2019-04-06T13:16:50.919Z,20.6
2019-04-06T13:17:53.883Z,20.5
2019-04-06T13:18:55.922Z,20.6
2019-04-06T13:19:58.141Z,20.7
2019-04-06T13:21:00.464Z,20.6
2019-04-06T13:22:03.150Z,20.6
2019-04-06T13:23:05.143Z,20.8
2019-04-06T13:24:07.124Z,20.8
2019-04-06T13:25:09.516Z,20.9
2019-04-06T13:26:13.068Z,21.0
2019-04-06T13:27:15.701Z,21.0
2019-04-06T13:28:18.344Z,21.2
2019-04-06T13:29:22.080Z,21.3
2019-04-06T13:30:24.690Z,21.2
2019-04-06T13:31:26.855Z,21.2
2019-04-06T13:32:29.359Z,21.1
2019-04-06T13:33:32.893Z,21.0
2019-04-06T13:34:36.864Z,21.0
2019-04-06T13:35:40.062Z,21.2
2019-04-06T13:36:43.007Z,21.2
2019-04-06T13:37:46.316Z,21.3
2019-04-06T13:38:49.420Z,21.3
2019-04-06T13:39:53.936Z,21.3
2019-04-06T13:40:56.111Z,21.4
2019-04-06T13:41:59.809Z,21.4
2019-04-06T13:43:03.034Z,21.1
2019-04-06T13:44:05.017Z,21.1
2019-04-06T13:45:07.393Z,21.0
2019-04-06T13:46:10.233Z,20.9
2019-04-06T13:47:12.674Z,20.8
2019-04-06T13:48:14.832Z,20.9
2019-04-06T13:49:18.849Z,21.0
2019-04-06T13:50:23.261Z,21.1
2019-04-06T13:51:27.354Z,21.2
2019-04-06T13:52:29.840Z,21.2
2019-04-06T13:53:33.291Z,21.3
2019-04-06T13:54:37.615Z,21.3
2019-04-06T13:55:42.611Z,21.5
2019-04-06T13:56:47.885Z,21.7
2019-04-06T13:57:52.863Z,21.8
2019-04-06T13:58:59.681Z,22.2
2019-04-06T14:00:04.506Z,22.3
2019-04-06T14:01:14.462Z,22.4